Terminal Aerodrome Forecast
Issued by NWS Portland, OR

Home | Current Version | Previous Version | Text Only | Print | Product List | Glossary On
Versions: 1 2 3 4 5 6 7 8 9 10 11 12 13 14 15 16 17 18 19
000
FTUS46 KPQR 181747
TAFEUG
TAF
KEUG 181747Z 1818/1918 17005KT P6SM SCT025 OVC040
      TEMPO 1818/1820 SCT015 OVC025
     FM190900 19011KT P6SM OVC050
     FM191200 19013G20KT P6SM SCT012 OVC025
     FM191700 19020G30KT 5SM -RA BR SCT008 OVC015=

USA.gov is the U.S. government's official web portal to all federal, state and local government web resources and services.